Time;durP1;ratioP1;P1;durP2;ratioP2;P2;SDS_P1;SDS_P2;PMS_P1;PMS_P2;Temp;Humidity;BMP_temperature;BMP_pressure;BME280_temperature;BME280_humidity;BME280_pressure;Samples;Min_cycle;Max_cycle;Signal;HPM_P1;HPM_P2
2022/09/24 00:00:35;;;;;;;3.20;3.00;;;22.70;41.10;;;;;;5013981;28;20845;-78
2022/09/24 00:03:00;;;;;;;3.20;3.00;;;22.70;41.10;;;;;;5016648;28;20692;-78
2022/09/24 00:05:26;;;;;;;2.97;2.87;;;22.70;41.10;;;;;;5021851;28;20210;-78
2022/09/24 00:07:51;;;;;;;3.17;2.97;;;22.70;41.10;;;;;;5019526;28;20215;-79
2022/09/24 00:10:17;;;;;;;2.83;2.73;;;22.70;41.10;;;;;;5021557;28;20233;-78
2022/09/24 00:12:42;;;;;;;2.90;2.70;;;22.70;41.10;;;;;;5018539;28;20226;-77
2022/09/24 00:15:08;;;;;;;2.70;2.50;;;22.70;41.90;;;;;;5018607;28;20227;-75
2022/09/24 00:17:34;;;;;;;3.60;3.30;;;22.70;41.10;;;;;;5021422;28;20272;-78
2022/09/24 00:20:00;;;;;;;2.90;2.70;;;22.70;41.10;;;;;;5020150;28;20237;-76
2022/09/24 00:22:25;;;;;;;3.10;2.90;;;22.70;41.10;;;;;;5020894;28;20227;-75
2022/09/24 00:27:35;;;;;;;3.00;2.80;;;22.70;41.20;;;;;;5017591;28;20225;-78
2022/09/24 00:30:00;;;;;;;2.63;2.53;;;22.70;41.20;;;;;;5018680;28;20464;-75
2022/09/24 00:32:26;;;;;;;3.00;2.80;;;22.70;41.30;;;;;;5019551;28;20784;-77
2022/09/24 00:34:52;;;;;;;3.27;2.97;;;22.70;41.20;;;;;;5020204;28;20713;-77
2022/09/24 00:37:18;;;;;;;3.03;2.83;;;22.70;41.20;;;;;;5003918;28;20219;-77
2022/09/24 00:39:47;;;;;;;2.90;2.80;;;22.70;41.20;;;;;;5020170;28;20218;-78
2022/09/24 00:42:12;;;;;;;2.80;2.60;;;22.70;41.20;;;;;;5022027;28;20466;-77
2022/09/24 00:44:47;;;;;;;2.90;2.80;;;22.70;41.30;;;;;;5005548;28;20460;-77
2022/09/24 00:47:47;;;;;;;2.90;2.80;;;22.70;41.20;;;;;;5005265;28;20249;-76
2022/09/24 00:50:30;;;;;;;3.17;2.97;;;22.70;41.30;;;;;;5016991;28;20460;-77
2022/09/24 00:53:00;;;;;;;2.90;2.80;;;22.70;41.30;;;;;;5022282;28;20448;-78
2022/09/24 00:55:26;;;;;;;4.03;3.07;;;22.70;41.30;;;;;;5021702;28;21426;-78
2022/09/24 00:57:57;;;;;;;3.03;2.93;;;22.70;41.40;;;;;;5022419;28;20436;-77
2022/09/24 01:00:24;;;;;;;2.77;2.67;;;22.70;41.30;;;;;;5021709;28;20828;-76
2022/09/24 01:02:55;;;;;;;2.53;2.43;;;22.70;41.30;;;;;;5020325;28;21142;-77
2022/09/24 01:05:21;;;;;;;3.00;2.70;;;22.70;41.30;;;;;;5022952;28;20460;-77
2022/09/24 01:07:47;;;;;;;2.93;2.83;;;22.70;41.30;;;;;;5032834;28;20458;-77
2022/09/24 01:10:46;;;;;;;11.40;3.63;;;22.70;41.30;;;;;;5022150;28;20603;-77
2022/09/24 01:13:14;;;;;;;2.63;2.53;;;22.70;41.40;;;;;;5021456;28;20484;-77
2022/09/24 01:15:47;;;;;;;3.00;2.80;;;22.70;41.40;;;;;;5020640;28;20463;-75
2022/09/24 01:18:34;;;;;;;3.00;2.80;;;22.70;41.30;;;;;;5022183;28;20822;-76
2022/09/24 01:21:27;;;;;;;2.60;2.50;;;22.70;41.30;;;;;;5019813;28;20488;-77
2022/09/24 01:24:04;;;;;;;2.87;2.70;;;22.70;41.40;;;;;;5018507;28;21084;-77
2022/09/24 01:27:06;;;;;;;3.30;3.03;;;22.70;41.40;;;;;;5022177;28;20463;-77
2022/09/24 01:30:04;;;;;;;2.80;2.70;;;22.70;41.40;;;;;;4990722;28;20467;-77
2022/09/24 01:32:40;;;;;;;3.20;3.00;;;22.60;41.40;;;;;;4976865;28;21152;-77
2022/09/24 01:35:23;;;;;;;2.90;2.80;;;22.70;41.40;;;;;;5034837;28;20483;-76
2022/09/24 01:37:55;;;;;;;2.67;2.57;;;22.70;41.40;;;;;;5021122;28;20468;-77
2022/09/24 01:40:24;;;;;;;3.33;3.00;;;22.70;41.50;;;;;;5021755;28;20487;-77
2022/09/24 01:42:51;;;;;;;3.10;2.90;;;22.70;41.50;;;;;;4999721;28;20466;-76
2022/09/24 01:45:18;;;;;;;3.87;3.10;;;22.70;41.40;;;;;;5020652;28;20521;-77
2022/09/24 01:47:44;;;;;;;3.50;3.30;;;22.70;41.50;;;;;;5002721;28;21568;-75
2022/09/24 01:50:13;;;;;;;3.37;3.00;;;22.70;41.50;;;;;;5035838;28;20480;-76
2022/09/24 01:53:00;;;;;;;2.87;2.67;;;22.70;41.50;;;;;;5021689;28;20728;-76
2022/09/24 01:55:31;;;;;;;2.70;2.50;;;22.60;41.40;;;;;;5020990;28;20553;-77
2022/09/24 01:58:20;;;;;;;3.03;2.93;;;22.70;41.50;;;;;;5034321;28;20460;-77
2022/09/24 02:00:50;;;;;;;3.30;3.10;;;22.70;41.50;;;;;;5004303;28;20966;-77
2022/09/24 02:03:30;;;;;;;3.43;3.13;;;22.70;41.50;;;;;;5004427;28;20444;-74
2022/09/24 02:06:04;;;;;;;2.93;2.73;;;22.60;41.40;;;;;;5020292;28;20454;-77
2022/09/24 02:08:37;;;;;;;3.07;2.93;;;22.70;41.50;;;;;;5021863;28;20474;-77
2022/09/24 02:11:18;;;;;;;4.77;3.50;;;22.70;41.50;;;;;;5020771;28;20478;-77
2022/09/24 02:13:46;;;;;;;3.50;3.30;;;22.60;41.50;;;;;;5019377;28;20487;-76
2022/09/24 02:16:15;;;;;;;3.27;3.07;;;22.70;41.60;;;;;;5019928;28;20950;-77
2022/09/24 02:18:45;;;;;;;3.27;3.07;;;22.70;41.60;;;;;;5034312;28;20452;-75
2022/09/24 02:21:15;;;;;;;2.90;2.80;;;22.70;41.50;;;;;;5018300;28;20456;-76
2022/09/24 02:23:46;;;;;;;3.30;3.20;;;22.70;41.60;;;;;;5021769;28;21817;-77
2022/09/24 02:26:12;;;;;;;3.60;3.40;;;22.70;41.60;;;;;;5021997;28;20992;-77
2022/09/24 02:28:39;;;;;;;3.20;3.00;;;22.60;41.50;;;;;;5020940;28;20491;-77
2022/09/24 02:31:12;;;;;;;3.20;3.10;;;22.70;41.50;;;;;;5003055;28;21277;-75
2022/09/24 02:36:26;;;;;;;3.30;3.10;;;22.70;41.60;;;;;;5019314;28;20470;-77
2022/09/24 02:38:52;;;;;;;3.23;3.03;;;22.70;41.60;;;;;;5036446;28;20460;-75
2022/09/24 02:41:21;;;;;;;2.70;2.60;;;22.70;41.60;;;;;;5016531;28;20989;-76
2022/09/24 02:43:46;;;;;;;3.27;3.07;;;22.70;41.60;;;;;;5020467;28;20215;-74
2022/09/24 02:46:12;;;;;;;3.20;3.00;;;22.60;41.50;;;;;;5034354;28;20514;-77
2022/09/24 02:48:37;;;;;;;2.80;2.70;;;22.60;41.50;;;;;;5019497;28;20230;-76
2022/09/24 02:51:04;;;;;;;2.80;2.70;;;22.70;41.60;;;;;;5020446;28;20294;-76
2022/09/24 02:53:31;;;;;;;3.67;3.47;;;22.60;41.50;;;;;;5021389;28;20265;-76
2022/09/24 02:55:59;;;;;;;3.00;2.90;;;22.70;41.60;;;;;;5014616;28;20456;-76
2022/09/24 02:58:25;;;;;;;3.40;3.13;;;22.70;41.60;;;;;;5019814;28;20551;-76
2022/09/24 03:00:52;;;;;;;3.17;2.97;;;22.60;41.50;;;;;;5019821;28;20480;-76
2022/09/24 03:03:18;;;;;;;3.50;3.30;;;22.60;41.50;;;;;;5033688;28;20452;-76
2022/09/24 03:05:44;;;;;;;3.10;3.00;;;22.70;41.60;;;;;;5018975;28;20826;-76
2022/09/24 03:08:10;;;;;;;3.30;3.10;;;22.70;41.60;;;;;;5020401;28;20228;-76
2022/09/24 03:10:35;;;;;;;3.17;2.97;;;22.60;41.50;;;;;;5018589;28;20448;-77
2022/09/24 03:13:01;;;;;;;3.20;3.00;;;22.60;41.50;;;;;;5017986;28;20218;-77
2022/09/24 03:15:26;;;;;;;3.40;3.20;;;22.60;41.50;;;;;;5018050;28;20318;-75
2022/09/24 03:17:52;;;;;;;3.50;3.30;;;22.60;41.60;;;;;;5020646;28;20301;-75
2022/09/24 03:20:17;;;;;;;3.30;3.10;;;22.60;41.50;;;;;;4999214;28;20219;-76
2022/09/24 03:22:43;;;;;;;3.80;3.60;;;22.60;41.50;;;;;;5020575;28;20280;-76
2022/09/24 03:25:09;;;;;;;3.20;2.90;;;22.60;41.50;;;;;;5015234;28;20306;-76
2022/09/24 03:27:35;;;;;;;3.30;3.13;;;22.60;41.60;;;;;;5021286;28;20700;-76
2022/09/24 03:32:46;;;;;;;3.33;3.13;;;22.60;41.60;;;;;;5020264;28;20269;-76
2022/09/24 03:35:13;;;;;;;3.03;2.83;;;22.60;41.50;;;;;;5020554;28;20523;-76
2022/09/24 03:37:41;;;;;;;3.10;2.90;;;22.60;41.50;;;;;;5000837;28;20494;-76
2022/09/24 03:40:08;;;;;;;3.97;3.57;;;22.60;41.50;;;;;;5037869;28;20493;-77
2022/09/24 03:42:33;;;;;;;3.60;3.40;;;22.60;41.50;;;;;;5021283;28;20595;-76
2022/09/24 03:44:59;;;;;;;3.30;3.10;;;22.60;41.50;;;;;;5023015;28;21137;-76
2022/09/24 03:47:25;;;;;;;3.00;2.80;;;22.60;41.50;;;;;;5022222;28;20224;-76
2022/09/24 03:49:52;;;;;;;3.23;3.10;;;22.60;42.20;;;;;;5023428;28;20233;-77
2022/09/24 03:52:18;;;;;;;3.90;3.70;;;22.60;41.50;;;;;;5001582;28;20215;-75
2022/09/24 03:54:43;;;;;;;3.20;3.00;;;22.60;41.60;;;;;;5004796;28;20552;-76
2022/09/24 03:57:09;;;;;;;3.27;3.10;;;22.60;41.50;;;;;;5022890;28;20301;-76
2022/09/24 03:59:34;;;;;;;3.57;3.37;;;22.60;41.50;;;;;;5003313;28;20231;-76
2022/09/24 04:02:00;;;;;;;2.90;2.70;;;22.60;41.50;;;;;;5026395;28;20725;-76
2022/09/24 04:04:25;;;;;;;3.33;3.13;;;22.60;41.50;;;;;;5004773;28;20242;-76
2022/09/24 04:06:51;;;;;;;3.40;3.20;;;22.60;41.50;;;;;;5023853;28;20692;-76
2022/09/24 04:09:17;;;;;;;3.43;3.23;;;22.60;41.50;;;;;;5022469;28;20226;-76
2022/09/24 04:11:43;;;;;;;3.67;3.47;;;22.60;41.50;;;;;;5023574;28;20457;-77
2022/09/24 04:14:09;;;;;;;3.60;3.30;;;22.60;41.50;;;;;;5023431;28;20645;-76
2022/09/24 04:16:35;;;;;;;3.27;3.07;;;22.60;41.50;;;;;;5037566;28;20467;-77
2022/09/24 04:19:00;;;;;;;3.20;3.00;;;22.60;41.50;;;;;;5023988;28;20304;-77
2022/09/24 04:21:26;;;;;;;3.20;3.00;;;22.60;41.50;;;;;;5022884;28;20456;-77
2022/09/24 04:23:51;;;;;;;2.87;2.77;;;22.60;41.50;;;;;;5020078;28;20688;-77
2022/09/24 04:26:17;;;;;;;2.97;2.87;;;22.60;41.50;;;;;;5022781;28;20222;-76
2022/09/24 04:28:43;;;;;;;3.50;3.30;;;22.60;41.50;;;;;;5025194;28;20231;-77
2022/09/24 04:31:08;;;;;;;3.07;2.90;;;22.60;41.50;;;;;;5021566;28;20234;-76
2022/09/24 04:33:34;;;;;;;3.97;3.77;;;22.60;41.50;;;;;;5025395;28;20246;-77
2022/09/24 04:35:59;;;;;;;3.80;3.60;;;22.60;41.50;;;;;;5004335;28;20223;-77
2022/09/24 04:38:25;;;;;;;3.60;3.40;;;22.60;41.50;;;;;;5036336;28;20369;-75
2022/09/24 04:40:50;;;;;;;3.27;3.07;;;22.60;41.50;;;;;;5020404;28;20712;-76
2022/09/24 04:43:17;;;;;;;3.87;3.67;;;22.60;41.50;;;;;;5024215;28;20207;-76
2022/09/24 04:45:43;;;;;;;3.53;3.33;;;22.60;41.50;;;;;;5024060;28;20226;-77
2022/09/24 04:48:10;;;;;;;3.83;3.63;;;22.60;41.50;;;;;;5022310;28;20483;-77
2022/09/24 04:50:36;;;;;;;3.27;3.07;;;22.60;41.50;;;;;;5022108;28;21114;-77
2022/09/24 04:53:02;;;;;;;3.23;3.03;;;22.60;41.50;;;;;;5022561;28;20513;-77
2022/09/24 04:55:27;;;;;;;3.20;3.00;;;22.60;41.50;;;;;;5022941;28;20463;-77
2022/09/24 04:57:57;;;;;;;3.50;3.30;;;22.60;41.50;;;;;;5022048;28;20215;-76
2022/09/24 05:00:23;;;;;;;6.50;3.13;;;22.60;41.50;;;;;;5021720;28;20242;-77
2022/09/24 05:02:57;;;;;;;3.40;3.10;;;22.60;41.50;;;;;;5005298;28;20571;-76
2022/09/24 05:05:22;;;;;;;3.10;2.90;;;22.60;41.50;;;;;;5005142;28;20463;-77
2022/09/24 05:07:50;;;;;;;3.17;2.97;;;22.60;41.50;;;;;;5021886;28;20461;-77
2022/09/24 05:10:15;;;;;;;3.70;3.50;;;22.60;41.60;;;;;;5022265;28;20752;-77
2022/09/24 05:12:41;;;;;;;3.33;3.13;;;22.60;41.50;;;;;;5022587;28;20484;-77
2022/09/24 05:15:07;;;;;;;3.40;3.20;;;22.60;41.50;;;;;;5020179;28;20384;-77
2022/09/24 05:17:32;;;;;;;3.27;3.07;;;22.60;41.50;;;;;;5021631;28;20428;-76
2022/09/24 05:20:00;;;;;;;3.13;3.00;;;22.70;41.60;;;;;;5020926;28;20456;-77
2022/09/24 05:22:26;;;;;;;3.30;3.10;;;22.70;41.60;;;;;;5018871;28;20207;-77
2022/09/24 05:24:53;;;;;;;4.00;3.80;;;22.70;41.60;;;;;;5020085;28;20459;-78
2022/09/24 05:27:20;;;;;;;2.90;2.80;;;22.70;41.60;;;;;;5018384;28;21020;-77
2022/09/24 05:29:46;;;;;;;3.87;3.67;;;22.70;41.60;;;;;;5023151;28;21139;-75
2022/09/24 05:32:14;;;;;;;2.70;2.60;;;22.70;41.60;;;;;;5024251;28;20452;-76
2022/09/24 05:34:41;;;;;;;3.20;3.00;;;22.70;42.40;;;;;;5031629;28;20565;-77
2022/09/24 05:37:07;;;;;;;2.97;2.77;;;22.70;41.60;;;;;;5019175;28;20429;-78
2022/09/24 05:39:32;;;;;;;3.00;2.80;;;22.70;41.60;;;;;;5021194;28;21710;-77
2022/09/24 05:41:58;;;;;;;3.20;3.00;;;22.70;41.60;;;;;;5020567;28;20697;-75
2022/09/24 05:44:23;;;;;;;2.87;2.70;;;22.70;41.60;;;;;;5021597;28;20666;-77
2022/09/24 05:46:50;;;;;;;3.93;3.63;;;22.70;41.60;;;;;;5011921;28;20314;-77
2022/09/24 05:49:15;;;;;;;2.60;2.50;;;22.70;41.60;;;;;;5015280;28;20387;-76
2022/09/24 05:51:41;;;;;;;3.00;2.87;;;22.70;41.60;;;;;;5015694;28;20890;-76
2022/09/24 05:54:07;;;;;;;3.63;3.33;;;22.70;41.60;;;;;;4998294;28;20680;-77
2022/09/24 05:56:33;;;;;;;2.90;2.70;;;22.70;41.60;;;;;;5018572;28;20246;-76
2022/09/24 05:58:59;;;;;;;3.00;2.80;;;22.70;41.50;;;;;;5016383;28;20230;-77
2022/09/24 06:01:28;;;;;;;3.27;3.10;;;22.70;41.60;;;;;;5020384;28;21500;-77
2022/09/24 06:03:55;;;;;;;3.30;3.10;;;22.70;41.60;;;;;;5021272;28;20567;-79
2022/09/24 06:06:21;;;;;;;2.97;2.80;;;22.70;41.60;;;;;;5017362;28;20538;-76
2022/09/24 06:08:46;;;;;;;3.40;3.20;;;22.70;41.60;;;;;;5022302;28;20910;-75
2022/09/24 06:11:12;;;;;;;3.03;2.83;;;22.70;41.60;;;;;;5019632;28;20219;-77
2022/09/24 06:13:38;;;;;;;2.90;2.80;;;22.70;41.60;;;;;;5021656;28;20222;-76
2022/09/24 06:16:08;;;;;;;2.70;2.50;;;22.70;41.60;;;;;;5019138;28;20463;-77
2022/09/24 06:18:36;;;;;;;3.03;2.93;;;22.70;41.60;;;;;;5020427;28;20404;-76
2022/09/24 06:21:04;;;;;;;4.20;4.00;;;22.70;41.60;;;;;;5015525;28;20460;-76
2022/09/24 06:23:30;;;;;;;2.97;2.77;;;22.70;41.60;;;;;;5016991;28;20465;-75
2022/09/24 06:25:56;;;;;;;3.00;2.87;;;22.70;41.60;;;;;;5030662;28;20494;-75
2022/09/24 06:28:24;;;;;;;3.13;2.93;;;22.70;41.50;;;;;;5034368;28;20462;-75
2022/09/24 06:30:50;;;;;;;3.37;3.17;;;22.70;41.60;;;;;;5020528;28;21104;-75
2022/09/24 06:33:15;;;;;;;3.00;2.80;;;22.70;41.60;;;;;;5018426;28;20483;-75
2022/09/24 06:35:42;;;;;;;3.30;3.10;;;22.70;41.60;;;;;;5006011;28;20219;-75
2022/09/24 06:38:11;;;;;;;3.40;3.20;;;22.70;41.60;;;;;;5004106;28;20584;-75
2022/09/24 06:40:37;;;;;;;3.50;3.30;;;22.70;41.60;;;;;;5018877;28;20452;-75
2022/09/24 06:43:04;;;;;;;2.97;2.67;;;22.70;41.60;;;;;;5002641;28;20978;-75
2022/09/24 06:45:30;;;;;;;3.60;3.40;;;22.70;41.60;;;;;;5019434;28;20548;-76
2022/09/24 06:47:57;;;;;;;4.40;3.60;;;22.70;41.60;;;;;;5019584;28;20523;-75
2022/09/24 06:50:24;;;;;;;3.10;2.90;;;22.70;41.60;;;;;;5000145;28;20269;-74
2022/09/24 06:52:50;;;;;;;3.00;2.87;;;22.70;41.60;;;;;;5020054;28;20487;-75
2022/09/24 06:55:16;;;;;;;3.40;3.20;;;22.70;41.60;;;;;;5020189;28;20965;-73
2022/09/24 06:57:42;;;;;;;3.27;3.00;;;22.70;41.60;;;;;;5019112;28;20800;-76
2022/09/24 07:00:09;;;;;;;3.53;3.33;;;22.70;41.60;;;;;;5018347;28;20449;-74
2022/09/24 07:02:35;;;;;;;3.67;2.70;;;22.70;41.60;;;;;;5018669;28;20215;-75
2022/09/24 07:05:01;;;;;;;3.10;2.90;;;22.70;41.60;;;;;;5019118;28;20628;-75
2022/09/24 07:07:29;;;;;;;3.20;3.00;;;22.70;41.60;;;;;;5017686;28;20240;-74
2022/09/24 07:09:55;;;;;;;3.47;3.27;;;22.70;41.60;;;;;;5014832;28;20589;-75
2022/09/24 07:12:21;;;;;;;3.60;3.40;;;22.70;41.60;;;;;;5020379;28;20440;-74
2022/09/24 07:14:47;;;;;;;3.20;3.00;;;22.70;41.60;;;;;;5017785;28;20962;-73
2022/09/24 07:17:13;;;;;;;3.07;2.97;;;22.70;41.60;;;;;;5019688;28;20451;-73
2022/09/24 07:19:38;;;;;;;3.23;3.03;;;22.70;41.60;;;;;;5018228;28;20227;-77
2022/09/24 07:22:04;;;;;;;2.67;2.57;;;22.70;42.30;;;;;;5013739;28;20226;-74
2022/09/24 07:24:30;;;;;;;3.30;3.10;;;22.70;41.60;;;;;;5012511;28;20241;-74
2022/09/24 07:26:55;;;;;;;3.50;3.30;;;22.70;41.60;;;;;;5013194;28;20799;-77
2022/09/24 07:29:21;;;;;;;3.20;2.90;;;22.70;41.60;;;;;;5012278;28;20715;-76
2022/09/24 07:31:47;;;;;;;3.80;3.60;;;22.70;41.60;;;;;;5030328;28;20696;-73
2022/09/24 07:34:15;;;;;;;3.60;3.40;;;22.70;42.30;;;;;;5016688;28;20214;-76
2022/09/24 07:36:41;;;;;;;3.40;3.20;;;22.70;41.60;;;;;;5018033;28;20584;-76
2022/09/24 07:39:08;;;;;;;3.90;3.70;;;22.70;41.60;;;;;;5013210;28;21013;-73
2022/09/24 07:41:33;;;;;;;3.00;2.80;;;22.70;41.60;;;;;;5015353;28;20472;-76
2022/09/24 07:44:00;;;;;;;3.43;3.23;;;22.70;41.60;;;;;;5018326;28;20464;-74
2022/09/24 07:46:26;;;;;;;3.17;2.97;;;22.70;41.60;;;;;;5017791;28;20302;-75
2022/09/24 07:48:55;;;;;;;3.60;3.40;;;22.70;41.60;;;;;;5015869;28;20547;-75
2022/09/24 07:51:21;;;;;;;3.30;3.10;;;22.70;42.30;;;;;;5013975;28;20242;-74
2022/09/24 07:53:47;;;;;;;3.80;3.60;;;22.70;41.60;;;;;;5019121;28;20535;-74
2022/09/24 07:56:13;;;;;;;3.67;3.47;;;22.70;41.60;;;;;;5013950;28;20471;-76
2022/09/24 07:58:39;;;;;;;3.27;3.07;;;22.70;41.60;;;;;;5001369;28;20456;-75
2022/09/24 08:01:05;;;;;;;3.23;3.03;;;22.70;41.60;;;;;;5000409;28;20320;-76
2022/09/24 08:03:31;;;;;;;3.33;3.13;;;22.70;41.60;;;;;;5022991;28;20708;-75
2022/09/24 08:05:58;;;;;;;3.10;2.90;;;22.70;41.60;;;;;;5020282;28;20253;-76
2022/09/24 08:08:25;;;;;;;3.50;3.30;;;22.70;41.60;;;;;;5033622;28;20444;-75
2022/09/24 08:10:50;;;;;;;4.40;3.60;;;22.70;41.50;;;;;;5035451;28;20571;-75
2022/09/24 08:13:16;;;;;;;3.57;3.37;;;22.70;41.60;;;;;;5018852;28;20543;-75
2022/09/24 08:15:42;;;;;;;3.73;3.50;;;22.70;41.60;;;;;;5018595;28;20258;-76
2022/09/24 08:18:08;;;;;;;3.87;3.37;;;22.70;41.60;;;;;;5019099;28;20764;-74
2022/09/24 08:20:36;;;;;;;4.13;3.53;;;22.70;41.60;;;;;;5021382;28;20509;-76
2022/09/24 08:23:04;;;;;;;3.40;3.20;;;22.70;41.60;;;;;;5016965;28;20513;-75
2022/09/24 08:25:30;;;;;;;3.60;3.40;;;22.70;41.60;;;;;;5021501;28;21452;-76
2022/09/24 08:28:15;;;;;;;3.50;3.30;;;22.70;41.60;;;;;;5021375;28;20439;-76
2022/09/24 08:30:42;;;;;;;3.97;3.13;;;22.70;41.60;;;;;;5018167;28;20865;-75
2022/09/24 08:33:09;;;;;;;3.27;3.07;;;22.70;41.60;;;;;;5026238;28;20506;-76
2022/09/24 08:35:35;;;;;;;3.17;2.97;;;22.70;41.60;;;;;;5022900;28;20440;-76
2022/09/24 08:38:02;;;;;;;3.80;3.60;;;22.70;41.60;;;;;;5021979;28;20447;-73
2022/09/24 08:40:34;;;;;;;3.80;3.50;;;22.60;41.50;;;;;;5024128;28;20464;-76
2022/09/24 08:43:25;;;;;;;3.60;3.40;;;22.60;41.60;;;;;;5021348;28;20480;-76
2022/09/24 08:48:45;;;;;;;3.37;3.17;;;22.70;41.60;;;;;;5022002;28;20487;-76
2022/09/24 08:51:16;;;;;;;3.30;3.10;;;22.60;41.50;;;;;;5018371;28;20744;-76
2022/09/24 08:54:13;;;;;;;3.10;2.90;;;22.60;41.50;;;;;;5023755;28;20961;-76
2022/09/24 08:56:44;;;;;;;3.63;3.33;;;22.70;41.60;;;;;;5033770;28;20456;-76
2022/09/24 08:59:26;;;;;;;3.40;3.20;;;22.70;41.60;;;;;;5022178;28;21501;-76
2022/09/24 09:02:04;;;;;;;3.73;3.53;;;22.70;41.60;;;;;;5022713;28;20456;-76
2022/09/24 09:04:38;;;;;;;4.63;3.57;;;22.70;41.60;;;;;;5022385;28;20456;-76
2022/09/24 09:07:21;;;;;;;3.57;3.37;;;22.70;41.60;;;;;;5023575;28;20463;-76
2022/09/24 09:10:03;;;;;;;4.00;3.73;;;22.70;41.60;;;;;;5023671;28;20852;-75
2022/09/24 09:12:51;;;;;;;3.77;3.50;;;22.70;41.60;;;;;;5022592;28;20502;-76
2022/09/24 09:15:23;;;;;;;3.80;3.60;;;22.70;41.60;;;;;;4999659;28;20447;-73
2022/09/24 09:17:53;;;;;;;3.60;3.40;;;22.70;41.60;;;;;;5034802;28;20440;-76
2022/09/24 09:20:44;;;;;;;3.30;3.10;;;22.70;41.60;;;;;;5020435;28;20460;-76
2022/09/24 09:23:17;;;;;;;3.70;3.50;;;22.70;41.60;;;;;;5020005;28;20525;-76
2022/09/24 09:25:51;;;;;;;3.70;3.50;;;22.70;41.60;;;;;;5020564;28;20435;-77
2022/09/24 09:28:17;;;;;;;3.83;3.60;;;22.60;41.50;;;;;;5008157;28;20801;-74
2022/09/24 09:31:33;;;;;;;4.27;3.97;;;22.70;41.60;;;;;;5023378;28;20455;-76
2022/09/24 09:34:28;;;;;;;3.70;3.50;;;22.70;41.60;;;;;;4940215;28;20225;-76
2022/09/24 09:37:06;;;;;;;3.27;3.07;;;22.70;41.60;;;;;;4941013;28;20502;-76
2022/09/24 09:39:46;;;;;;;3.40;3.10;;;22.70;41.60;;;;;;5000298;28;20539;-76
2022/09/24 09:42:31;;;;;;;3.80;3.50;;;22.60;41.50;;;;;;5022159;28;20463;-76
2022/09/24 09:45:01;;;;;;;3.60;3.40;;;22.60;41.50;;;;;;5019043;28;20745;-76
2022/09/24 09:47:56;;;;;;;3.60;3.40;;;22.70;41.60;;;;;;5015986;28;20476;-76
2022/09/24 09:50:27;;;;;;;3.60;3.40;;;22.70;41.60;;;;;;4998001;28;20554;-76
2022/09/24 09:52:54;;;;;;;3.33;3.13;;;22.60;41.50;;;;;;5022581;28;20474;-77
2022/09/24 09:55:30;;;;;;;3.43;3.23;;;22.60;41.50;;;;;;5034954;28;20994;-77
2022/09/24 09:58:17;;;;;;;3.37;3.17;;;22.60;41.50;;;;;;5020022;28;20570;-77
2022/09/24 10:00:48;;;;;;;4.43;4.10;;;22.70;41.60;;;;;;5022094;28;20448;-76
2022/09/24 10:03:25;;;;;;;3.57;3.37;;;22.70;41.60;;;;;;5022817;28;20802;-76
2022/09/24 10:06:04;;;;;;;3.70;3.23;;;22.70;41.60;;;;;;5020686;28;20456;-76
2022/09/24 10:08:29;;;;;;;3.23;3.03;;;22.70;41.60;;;;;;5019961;28;20444;-75
2022/09/24 10:10:58;;;;;;;3.37;3.17;;;22.70;41.60;;;;;;5021617;28;20875;-74
2022/09/24 10:13:25;;;;;;;2.90;2.70;;;22.70;41.60;;;;;;5020889;28;20653;-76
2022/09/24 10:15:56;;;;;;;3.67;3.47;;;22.70;41.60;;;;;;5016656;28;20551;-76
2022/09/24 10:18:35;;;;;;;3.97;3.67;;;22.70;41.60;;;;;;5013478;28;20503;-75
2022/09/24 10:21:04;;;;;;;3.33;3.10;;;22.70;41.60;;;;;;4999527;28;20472;-76
2022/09/24 10:23:41;;;;;;;3.77;3.57;;;22.70;41.60;;;;;;5019835;28;20451;-77
2022/09/24 10:26:07;;;;;;;3.50;3.03;;;22.70;41.60;;;;;;5020817;28;21834;-77
2022/09/24 10:31:25;;;;;;;3.23;3.03;;;22.70;41.60;;;;;;5020284;28;20459;-74
2022/09/24 10:33:54;;;;;;;3.40;3.20;;;22.70;41.60;;;;;;5020839;28;20447;-76
2022/09/24 10:36:22;;;;;;;3.57;3.37;;;22.70;41.60;;;;;;5035847;28;20441;-75
2022/09/24 10:38:48;;;;;;;3.50;3.30;;;22.70;41.60;;;;;;5022403;28;20819;-75
2022/09/24 10:41:20;;;;;;;3.33;3.13;;;22.70;41.60;;;;;;5022492;28;20463;-76
2022/09/24 10:43:51;;;;;;;3.30;3.10;;;22.70;41.60;;;;;;5020187;28;20460;-73
2022/09/24 10:46:23;;;;;;;3.43;3.23;;;22.70;41.60;;;;;;5003384;28;20505;-75
2022/09/24 10:49:32;;;;;;;2.90;2.80;;;22.70;41.60;;;;;;5019983;28;20443;-74
2022/09/24 10:52:02;;;;;;;3.37;3.17;;;22.70;41.60;;;;;;5021603;28;20424;-77
2022/09/24 10:54:48;;;;;;;3.20;3.00;;;22.70;41.60;;;;;;5033517;28;20453;-76
2022/09/24 10:57:38;;;;;;;3.50;3.30;;;22.70;41.60;;;;;;5002303;28;20518;-73
2022/09/24 11:00:10;;;;;;;3.20;3.00;;;22.70;41.60;;;;;;5020348;28;21013;-72
2022/09/24 11:02:58;;;;;;;3.60;3.40;;;22.70;41.60;;;;;;5021315;28;20946;-76
2022/09/24 11:05:30;;;;;;;3.53;3.30;;;22.70;41.60;;;;;;5017452;28;20451;-77
2022/09/24 11:08:20;;;;;;;3.50;3.30;;;22.70;41.60;;;;;;5018576;28;20455;-76
2022/09/24 11:10:55;;;;;;;3.70;3.50;;;22.70;41.60;;;;;;5020382;28;20474;-77
2022/09/24 11:13:40;;;;;;;3.33;3.13;;;22.70;41.60;;;;;;5013771;28;20823;-76
2022/09/24 11:16:22;;;;;;;3.10;2.90;;;22.70;41.60;;;;;;5018538;28;21139;-73
2022/09/24 11:19:14;;;;;;;3.40;3.20;;;22.70;41.60;;;;;;5015529;28;20468;-75
2022/09/24 11:22:34;;;;;;;3.50;3.30;;;22.70;41.60;;;;;;5035354;28;20996;-78
2022/09/24 11:25:23;;;;;;;3.53;3.33;;;22.70;41.60;;;;;;4935679;28;20821;-73
2022/09/24 11:28:01;;;;;;;3.30;3.10;;;22.70;41.60;;;;;;5017512;28;21301;-74
2022/09/24 11:30:51;;;;;;;3.50;3.30;;;22.70;41.60;;;;;;5029763;28;20525;-74
2022/09/24 11:33:56;;;;;;;3.20;3.00;;;22.70;41.60;;;;;;5017213;28;20457;-73
2022/09/24 11:36:36;;;;;;;3.50;3.30;;;22.70;41.60;;;;;;4973676;28;20443;-73
2022/09/24 11:39:33;;;;;;;3.53;3.33;;;22.70;41.60;;;;;;5019509;28;20973;-74
2022/09/24 11:42:15;;;;;;;3.50;3.30;;;22.70;41.60;;;;;;5028125;28;20482;-74
2022/09/24 11:45:11;;;;;;;3.63;3.20;;;22.70;41.60;;;;;;5012147;28;20464;-74
2022/09/24 11:47:40;;;;;;;5.03;3.83;;;22.70;41.60;;;;;;5013820;28;20985;-73
2022/09/24 11:50:42;;;;;;;3.30;3.10;;;22.70;41.60;;;;;;5012177;28;20476;-74
2022/09/24 11:53:13;;;;;;;3.50;3.30;;;22.70;41.60;;;;;;4992564;28;20529;-75
2022/09/24 11:55:48;;;;;;;3.83;3.63;;;22.70;41.60;;;;;;5017228;28;20474;-75
2022/09/24 11:58:18;;;;;;;3.43;3.23;;;22.70;41.60;;;;;;5012262;28;21277;-73
2022/09/24 12:03:55;;;;;;;3.23;3.03;;;22.70;41.60;;;;;;4999923;22;20472;-60
2022/09/24 12:06:46;;;;;;;3.30;3.10;;;22.70;41.60;;;;;;4981821;28;20936;-60
2022/09/24 12:09:34;;;;;;;3.40;3.20;;;22.70;41.60;;;;;;4987943;28;20461;-62
2022/09/24 12:12:18;;;;;;;3.30;3.10;;;22.70;41.60;;;;;;4999677;28;20484;-63
2022/09/24 12:14:53;;;;;;;4.10;3.80;;;22.70;41.60;;;;;;4992652;28;21075;-58
2022/09/24 12:17:46;;;;;;;3.10;2.90;;;22.70;41.60;;;;;;4997537;28;20511;-60
2022/09/24 12:20:15;;;;;;;3.20;3.00;;;22.70;41.60;;;;;;4994359;28;20468;-57
2022/09/24 12:22:41;;;;;;;3.80;3.60;;;22.70;41.60;;;;;;4994961;28;21003;-58
2022/09/24 12:25:14;;;;;;;3.77;3.57;;;22.70;41.60;;;;;;4999067;28;20602;-58
2022/09/24 12:27:41;;;;;;;3.57;3.20;;;22.70;41.60;;;;;;4997785;28;20307;-57
2022/09/24 12:33:30;;;;;;;3.50;3.30;;;22.70;41.60;;;;;;4997858;28;20569;-61
2022/09/24 12:36:10;;;;;;;3.50;3.30;;;22.70;41.60;;;;;;5000342;28;20818;-58
2022/09/24 12:39:02;;;;;;;3.60;3.40;;;22.70;41.60;;;;;;4997849;28;20461;-56
2022/09/24 12:41:37;;;;;;;3.60;3.40;;;22.70;41.60;;;;;;4994260;28;20837;-60
2022/09/24 12:44:09;;;;;;;3.73;3.43;;;22.70;41.60;;;;;;4994722;28;20480;-57
2022/09/24 12:46:39;;;;;;;3.80;3.43;;;22.60;41.50;;;;;;5001720;28;20474;-57
2022/09/24 12:49:27;;;;;;;3.67;3.47;;;22.70;41.60;;;;;;4998994;28;20472;-65
2022/09/24 12:51:56;;;;;;;3.83;3.60;;;22.70;41.60;;;;;;4996114;28;20507;-59
2022/09/24 12:54:26;;;;;;;3.87;3.67;;;22.70;41.60;;;;;;4998968;28;20461;-60
2022/09/24 12:57:03;;;;;;;3.57;3.37;;;22.70;41.60;;;;;;5000812;28;20493;-57
2022/09/24 12:59:28;;;;;;;3.80;3.50;;;22.70;41.60;;;;;;5000007;28;20469;-62
2022/09/24 13:02:05;;;;;;;3.57;3.37;;;22.70;41.60;;;;;;4995469;28;20524;-59
2022/09/24 13:04:30;;;;;;;3.77;3.57;;;22.70;41.60;;;;;;4996170;28;20628;-57
2022/09/24 13:06:56;;;;;;;3.70;3.50;;;22.70;41.60;;;;;;4996843;28;20515;-59
2022/09/24 13:09:37;;;;;;;3.50;3.30;;;22.70;41.60;;;;;;4998205;28;20219;-59
2022/09/24 13:12:21;;;;;;;3.90;3.60;;;22.70;41.60;;;;;;5003208;28;20326;-58
2022/09/24 13:15:02;;;;;;;3.50;3.30;;;22.70;41.60;;;;;;4996482;28;20828;-58
2022/09/24 13:17:34;;;;;;;3.60;3.40;;;22.70;41.60;;;;;;4997846;28;20488;-58
2022/09/24 13:20:07;;;;;;;3.40;3.20;;;22.70;41.60;;;;;;4993830;28;20617;-58
2022/09/24 13:22:36;;;;;;;3.50;3.30;;;22.70;41.60;;;;;;4995854;28;20473;-57
2022/09/24 13:25:08;;;;;;;4.10;3.80;;;22.70;41.60;;;;;;4996307;28;20457;-60
2022/09/24 13:27:37;;;;;;;3.73;3.53;;;22.60;41.50;;;;;;5000983;28;20495;-58
2022/09/24 13:30:19;;;;;;;4.07;3.87;;;22.70;41.60;;;;;;4993889;28;20462;-59